Time;durP1;ratioP1;P1;durP2;ratioP2;P2;SDS_P1;SDS_P2;PMS_P1;PMS_P2;Temp;Humidity;BMP_temperature;BMP_pressure;BME280_temperature;BME280_humidity;BME280_pressure;Samples;Min_cycle;Max_cycle;Signal;HPM_P1;HPM_P2
2022/02/09 00:04:21;;;;;;;;;;;;;;;5.64;75.62;97851.16;4988300;28;19970;-75
2022/02/09 00:09:15;;;;;;;;;;;;;;;5.65;75.07;97852.00;4980112;28;19961;-75
2022/02/09 00:11:49;;;;;;;;;;;;;;;5.64;75.22;97835.56;4982161;28;19955;-75
2022/02/09 00:19:39;;;;;;;;;;;;;;;5.63;75.60;97846.13;4984665;28;19956;-75
2022/02/09 01:43:51;;;;;;;;;;;;;;;4.99;72.27;97801.22;4981230;28;19960;-75
2022/02/09 01:56:40;;;;;;;;;;;;;;;4.83;71.81;97796.66;4935376;29;19966;-74
2022/02/09 01:59:06;;;;;;;;;;;;;;;4.80;72.59;97794.38;4945747;29;19965;-75
2022/02/09 02:01:31;;;;;;;;;;;;;;;4.74;72.14;97785.38;4946083;29;20445;-76
2022/02/09 02:03:58;;;;;;;;;;;;;;;4.70;72.88;97789.25;4951617;29;19966;-75
2022/02/09 02:06:24;;;;;;;;;;;;;;;4.72;73.48;97791.72;4950622;29;19967;-73
2022/02/09 02:08:52;;;;;;;;;;;;;;;4.74;72.89;97775.00;4941116;29;19966;-74
2022/02/09 02:11:27;;;;;;;;;;;;;;;4.69;72.47;97779.81;4946274;29;19974;-74
2022/02/09 02:16:39;;;;;;;;;;;;;;;4.64;72.44;97771.63;4948731;29;19961;-74
2022/02/09 02:19:14;;;;;;;;;;;;;;;4.58;72.30;97762.69;4942629;29;19975;-75
2022/02/09 02:46:28;;;;;;;;;;;;;;;4.33;73.19;97745.22;4912995;29;20004;-75
2022/02/09 02:57:17;;;;;;;;;;;;;;;4.23;74.44;97766.84;4985025;28;19969;-73
2022/02/09 03:08:08;;;;;;;;;;;;;;;4.26;73.92;97758.78;4972086;28;20448;-74
2022/02/09 03:13:05;;;;;;;;;;;;;;;4.15;73.05;97755.53;4985214;28;20025;-74
2022/02/09 03:15:54;;;;;;;;;;;;;;;4.06;73.46;97752.84;4981344;28;20322;-75
2022/02/09 03:18:47;;;;;;;;;;;;;;;4.03;73.57;97753.16;4965223;28;19961;-75
2022/02/09 03:24:04;;;;;;;;;;;;;;;4.05;73.51;97743.44;4976963;28;19964;-75
2022/02/09 03:58:06;;;;;;;;;;;;;;;3.58;73.56;97721.94;4987895;28;19956;-74
2022/02/09 04:00:38;;;;;;;;;;;;;;;3.52;74.34;97740.66;4984674;28;19961;-74
2022/02/09 04:03:06;;;;;;;;;;;;;;;3.49;74.19;97730.56;4989289;28;19960;-75
2022/02/09 04:05:32;;;;;;;;;;;;;;;3.49;74.43;97731.38;4975651;28;19970;-74
2022/02/09 04:08:00;;;;;;;;;;;;;;;3.49;73.92;97730.56;4980901;28;19952;-74
2022/02/09 04:10:35;;;;;;;;;;;;;;;3.44;74.17;97728.38;4980777;28;19962;-75
2022/02/09 04:13:16;;;;;;;;;;;;;;;3.40;74.13;97721.84;4987892;28;19976;-75
2022/02/09 04:37:30;;;;;;;;;;;;;;;3.17;74.15;97736.91;4975235;28;19969;-74
2022/02/09 04:40:02;;;;;;;;;;;;;;;3.13;74.54;97745.91;4985241;28;19953;-74
2022/02/09 04:42:42;;;;;;;;;;;;;;;3.10;74.32;97733.22;4987996;28;20467;-74
2022/02/09 04:50:52;;;;;;;;;;;;;;;3.01;74.64;97722.75;4987368;28;19954;-74
2022/02/09 04:55:55;;;;;;;;;;;;;;;2.93;74.37;97719.22;4989033;28;19996;-74
2022/02/09 04:58:45;;;;;;;;;;;;;;;2.88;74.50;97721.38;4978032;28;19967;-75
2022/02/09 05:01:34;;;;;;;;;;;;;;;2.83;74.57;97725.22;4971895;28;19986;-74
2022/02/09 05:28:26;;;;;;;;;;;;;;;2.77;75.71;97743.06;4988138;28;19957;-74
2022/02/09 05:30:52;;;;;;;;;;;;;;;2.76;75.68;97739.66;4981729;28;19956;-74
2022/02/09 05:33:18;;;;;;;;;;;;;;;2.75;75.50;97740.63;4985329;28;19965;-74
2022/02/09 05:35:44;;;;;;;;;;;;;;;2.73;75.14;97736.53;4989932;28;19970;-74
2022/02/09 05:38:11;;;;;;;;;;;;;;;2.70;75.56;97739.41;4985113;28;19964;-75
2022/02/09 05:40:37;;;;;;;;;;;;;;;2.70;75.50;97739.41;4985340;28;19970;-75
2022/02/09 05:43:03;;;;;;;;;;;;;;;2.67;75.13;97740.50;4987186;28;19962;-75
2022/02/09 05:45:44;;;;;;;;;;;;;;;2.66;75.18;97744.03;4986912;28;20417;-74
2022/02/09 05:53:27;;;;;;;;;;;;;;;2.62;75.50;97750.44;4985264;28;19971;-75
2022/02/09 05:59:04;;;;;;;;;;;;;;;2.53;75.17;97741.69;4951345;28;19963;-76
2022/02/09 06:01:30;;;;;;;;;;;;;;;2.49;74.88;97748.09;4986287;28;20324;-75
2022/02/09 06:03:56;;;;;;;;;;;;;;;2.45;75.41;97754.50;4988757;28;19959;-75
2022/02/09 06:06:22;;;;;;;;;;;;;;;2.43;75.38;97751.22;4984198;28;20402;-75
2022/02/09 06:08:48;;;;;;;;;;;;;;;2.40;75.34;97749.72;4980659;28;20396;-75
2022/02/09 06:21:50;;;;;;;;;;;;;;;2.22;75.04;97756.50;4986369;28;19961;-75
2022/02/09 06:24:16;;;;;;;;;;;;;;;2.18;75.15;97753.38;4981705;28;19965;-75
2022/02/09 06:26:42;;;;;;;;;;;;;;;2.16;75.32;97757.88;4972694;28;19963;-75
2022/02/09 06:29:08;;;;;;;;;;;;;;;2.13;75.42;97754.72;4983828;28;19980;-74
2022/02/09 06:31:36;;;;;;;;;;;;;;;2.10;75.44;97754.97;4985789;28;19951;-75
2022/02/09 06:34:03;;;;;;;;;;;;;;;2.06;75.37;97754.44;4986919;28;20456;-75
2022/02/09 06:36:29;;;;;;;;;;;;;;;2.04;75.44;97753.75;4988017;28;20436;-75
2022/02/09 06:39:02;;;;;;;;;;;;;;;2.01;75.49;97749.63;4978543;28;19964;-75
2022/02/09 06:41:28;;;;;;;;;;;;;;;2.00;75.55;97748.00;4984836;28;19967;-75
2022/02/09 06:43:54;;;;;;;;;;;;;;;1.94;75.44;97751.13;4984245;28;19964;-74
2022/02/09 06:46:20;;;;;;;;;;;;;;;1.91;75.74;97756.56;4988708;28;19983;-75
2022/02/09 06:48:46;;;;;;;;;;;;;;;1.89;75.76;97747.28;4984889;28;19963;-75
2022/02/09 06:51:15;;;;;;;;;;;;;;;1.89;75.73;97752.44;4981893;28;19956;-74
2022/02/09 06:54:06;;;;;;;;;;;;;;;1.87;75.83;97750.00;4984880;28;19998;-75
2022/02/09 06:59:21;;;;;;;;;;;;;;;1.84;75.99;97760.59;4975434;28;19959;-75
2022/02/09 07:01:47;;;;;;;;;;;;;;;1.81;75.97;97756.50;4984948;28;19964;-75
2022/02/09 07:04:13;;;;;;;;;;;;;;;1.83;76.15;97769.31;4983591;28;20421;-74
2022/02/09 07:06:39;;;;;;;;;;;;;;;1.83;76.44;97769.31;4984441;28;19961;-75
2022/02/09 07:09:08;;;;;;;;;;;;;;;1.84;76.38;97765.78;4988218;28;20427;-75
2022/02/09 07:11:34;;;;;;;;;;;;;;;1.86;76.50;97761.28;4988272;28;19953;-75
2022/02/09 07:14:00;;;;;;;;;;;;;;;1.90;76.39;97761.88;4981775;28;20579;-75
2022/02/09 07:16:26;;;;;;;;;;;;;;;1.95;76.39;97763.13;4984383;28;19958;-75
2022/02/09 07:18:52;;;;;;;;;;;;;;;2.17;75.92;97758.69;4988882;28;19966;-75
2022/02/09 07:21:24;;;;;;;;;;;;;;;2.52;74.97;97744.41;4984046;28;19971;-75
2022/02/09 07:23:52;;;;;;;;;;;;;;;2.99;73.81;97747.97;4984282;28;19958;-75
2022/02/09 07:26:25;;;;;;;;;;;;;;;3.52;72.72;97728.50;4983023;28;19963;-75
2022/02/09 07:28:51;;;;;;;;;;;;;;;4.02;71.02;97712.56;4988294;28;19968;-75
2022/02/09 07:31:18;;;;;;;;;;;;;;;4.38;69.56;97693.63;4983104;28;20423;-75
2022/02/09 07:33:45;;;;;;;;;;;;;;;4.65;68.43;97683.16;4982099;28;20447;-75
2022/02/09 07:36:11;;;;;;;;;;;;;;;4.99;68.00;97679.84;4984838;28;19962;-75
2022/02/09 07:38:39;;;;;;;;;;;;;;;5.35;67.16;97669.31;4986588;28;19960;-75
2022/02/09 07:41:05;;;;;;;;;;;;;;;5.65;65.88;97655.00;4982956;28;20431;-75
2022/02/09 07:43:44;;;;;;;;;;;;;;;5.90;65.94;97658.53;4981938;28;19958;-75
2022/02/09 07:48:59;;;;;;;;;;;;;;;6.54;64.83;97638.97;4987022;28;20409;-75
2022/02/09 07:56:17;;;;;;;;;;;;;;;7.08;61.74;97607.94;4982805;28;19976;-75
2022/02/09 07:58:44;;;;;;;;;;;;;;;7.09;59.99;97579.06;4989594;28;20322;-75
2022/02/09 08:01:10;;;;;;;;;;;;;;;7.11;61.76;97597.97;4986540;28;19970;-75
2022/02/09 08:03:36;;;;;;;;;;;;;;;7.04;59.58;97583.16;4986105;28;19950;-75
2022/02/09 08:06:03;;;;;;;;;;;;;;;6.93;61.19;97607.81;4968092;28;19962;-75
2022/02/09 08:08:31;;;;;;;;;;;;;;;6.93;61.54;97600.00;4989844;28;19956;-75
2022/02/09 08:11:10;;;;;;;;;;;;;;;6.91;61.75;97587.09;4990397;28;19966;-75
2022/02/09 08:27:45;;;;;;;;;;;;;;;7.05;61.02;97577.75;4984925;28;19957;-76
2022/02/09 08:32:49;;;;;;;;;;;;;;;7.17;60.56;97559.97;4985988;28;19973;-75
2022/02/09 08:35:16;;;;;;;;;;;;;;;7.24;59.31;97554.88;4988031;28;19969;-75
2022/02/09 08:37:42;;;;;;;;;;;;;;;7.23;60.55;97558.50;4989731;28;19945;-75
2022/02/09 08:40:10;;;;;;;;;;;;;;;7.27;61.70;97581.47;4990580;28;19953;-75
2022/02/09 08:42:38;;;;;;;;;;;;;;;7.38;62.18;97576.84;4987872;28;19958;-75
2022/02/09 08:45:05;;;;;;;;;;;;;;;7.21;60.01;97556.03;4983047;28;20331;-76
2022/02/09 08:47:31;;;;;;;;;;;;;;;7.23;60.12;97551.47;4989481;28;19957;-75
2022/02/09 08:49:57;;;;;;;;;;;;;;;7.19;60.87;97560.59;4987370;28;20009;-76
2022/02/09 08:52:23;;;;;;;;;;;;;;;7.14;60.85;97559.47;4982398;28;19965;-75
2022/02/09 08:54:50;;;;;;;;;;;;;;;7.09;59.91;97550.38;4984545;28;20369;-75
2022/02/09 08:57:16;;;;;;;;;;;;;;;7.03;60.89;97564.06;4989114;28;19966;-76
2022/02/09 08:59:42;;;;;;;;;;;;;;;7.05;60.49;97553.47;4990298;28;19964;-75
2022/02/09 09:02:11;;;;;;;;;;;;;;;7.01;62.00;97573.06;4986904;28;20049;-76
2022/02/09 09:05:09;;;;;;;;;;;;;;;7.09;62.48;97573.84;4982846;28;19954;-75
2022/02/09 09:07:29;;;;;;;;;;;;;;;6.96;62.15;97567.53;4984863;28;19958;-75
2022/02/09 10:02:16;;;;;;;;;;;;;;;7.57;63.51;97559.97;4982544;28;20338;-75
2022/02/09 10:04:30;;;;;;;;;;;;;;;7.79;62.98;97556.59;4971228;28;19959;-75
2022/02/09 10:35:11;;;;;;;;;;;;;;;8.87;62.15;97531.22;4983852;28;19978;-76
2022/02/09 10:37:37;;;;;;;;;;;;;;;9.04;61.16;97511.72;4994984;28;19962;-75
2022/02/09 10:40:10;;;;;;;;;;;;;;;9.11;60.58;97501.31;4984244;28;20333;-76
2022/02/09 10:42:36;;;;;;;;;;;;;;;9.14;59.76;97491.31;4969931;28;19958;-75
2022/02/09 10:45:18;;;;;;;;;;;;;;;9.18;59.86;97486.53;4984280;28;20289;-75
2022/02/09 10:47:44;;;;;;;;;;;;;;;9.21;59.33;97472.25;4980963;28;19964;-75
2022/02/09 10:50:23;;;;;;;;;;;;;;;9.34;59.86;97469.78;4987180;28;20374;-75
2022/02/09 10:52:50;;;;;;;;;;;;;;;9.42;60.55;97468.88;4988574;28;19961;-75
2022/02/09 10:55:25;;;;;;;;;;;;;;;9.58;61.64;97486.97;4982810;28;20439;-75
2022/02/09 10:57:51;;;;;;;;;;;;;;;9.67;58.68;97440.53;4984783;28;19963;-75
2022/02/09 11:00:17;;;;;;;;;;;;;;;9.65;59.98;97448.56;4988455;28;20407;-75
2022/02/09 11:02:43;;;;;;;;;;;;;;;9.80;61.17;97453.72;4982201;28;19958;-76
2022/02/09 11:05:10;;;;;;;;;;;;;;;9.91;57.72;97415.72;4982711;28;19954;-75
2022/02/09 11:07:37;;;;;;;;;;;;;;;9.87;58.32;97415.31;4982882;28;19954;-76
2022/02/09 11:10:03;;;;;;;;;;;;;;;9.95;58.63;97415.19;4988188;28;19969;-75
2022/02/09 11:12:30;;;;;;;;;;;;;;;9.96;58.84;97424.66;4984314;28;19965;-75
2022/02/09 11:14:56;;;;;;;;;;;;;;;10.18;59.38;97426.41;4981809;28;19976;-72
2022/02/09 11:17:22;;;;;;;;;;;;;;;10.43;60.59;97435.50;4983706;28;19967;-75
2022/02/09 11:19:51;;;;;;;;;;;;;;;10.70;60.07;97425.97;4985873;28;19972;-75
2022/02/09 11:22:22;;;;;;;;;;;;;;;10.79;56.71;97384.63;4988121;28;19970;-75
2022/02/09 11:25:06;;;;;;;;;;;;;;;10.69;56.14;97377.13;4982666;28;19956;-75
2022/02/09 11:27:36;;;;;;;;;;;;;;;10.66;57.34;97392.44;4982762;28;19963;-75
2022/02/09 11:30:21;;;;;;;;;;;;;;;10.70;59.41;97415.47;4982731;28;19969;-75
2022/02/09 11:33:07;;;;;;;;;;;;;;;10.81;57.50;97387.84;4970860;28;19963;-75
2022/02/09 11:35:42;;;;;;;;;;;;;;;10.74;57.43;97379.97;4982415;28;19973;-75
2022/02/09 11:38:29;;;;;;;;;;;;;;;10.76;58.93;97406.00;4985065;28;19951;-76
2022/02/09 11:41:10;;;;;;;;;;;;;;;10.83;58.07;97390.28;4979541;28;19962;-76
2022/02/09 11:51:22;;;;;;;;;;;;;;;11.50;57.88;97372.88;4981180;28;19962;-75
2022/02/09 12:11:16;;;;;;;;;;;;;;;11.72;56.04;97336.75;4981348;28;19961;-72
2022/02/09 12:17:01;;;;;;;;;;;;;;;11.98;56.12;97325.41;4957267;28;19958;-74
2022/02/09 12:19:45;;;;;;;;;;;;;;;11.94;57.14;97330.25;4981108;28;19963;-75
2022/02/09 12:22:21;;;;;;;;;;;;;;;12.00;56.58;97325.22;4980070;28;19956;-76
2022/02/09 12:24:54;;;;;;;;;;;;;;;12.06;55.89;97313.88;4966412;28;19963;-75
2022/02/09 12:27:21;;;;;;;;;;;;;;;12.05;56.26;97318.31;4981873;28;19960;-75
2022/02/09 12:29:48;;;;;;;;;;;;;;;12.14;56.13;97309.19;4983114;28;19972;-75
2022/02/09 12:32:14;;;;;;;;;;;;;;;12.14;56.29;97298.69;4985304;28;19953;-75
2022/02/09 12:34:43;;;;;;;;;;;;;;;12.19;55.89;97296.22;4982555;28;20065;-75
2022/02/09 12:37:15;;;;;;;;;;;;;;;12.24;56.31;97297.44;4983744;28;19955;-75
2022/02/09 12:39:48;;;;;;;;;;;;;;;12.25;55.92;97284.06;4989599;28;19954;-72
2022/02/09 12:42:14;;;;;;;;;;;;;;;12.26;55.97;97283.06;4985652;28;19981;-75
2022/02/09 12:44:40;;;;;;;;;;;;;;;12.28;55.59;97281.03;4977125;28;20485;-72
2022/02/09 12:47:06;;;;;;;;;;;;;;;12.37;56.41;97292.94;4988260;28;19963;-73
2022/02/09 12:49:32;;;;;;;;;;;;;;;12.44;55.32;97282.38;4987878;28;19968;-72
2022/02/09 12:51:58;;;;;;;;;;;;;;;12.38;53.76;97252.47;4986868;28;20328;-73
2022/02/09 12:54:24;;;;;;;;;;;;;;;12.31;55.52;97270.09;4982486;28;19990;-75
2022/02/09 12:56:52;;;;;;;;;;;;;;;12.28;56.04;97281.03;4983868;28;20064;-77
2022/02/09 12:59:20;;;;;;;;;;;;;;;12.28;55.63;97267.88;4981437;28;20420;-76
2022/02/09 13:01:49;;;;;;;;;;;;;;;12.25;54.95;97257.78;4979572;28;20216;-76
2022/02/09 13:04:30;;;;;;;;;;;;;;;12.22;55.86;97263.47;4980225;28;19967;-72
2022/02/09 13:06:57;;;;;;;;;;;;;;;12.28;55.49;97254.72;4977142;28;19971;-75
2022/02/09 13:09:24;;;;;;;;;;;;;;;12.40;57.01;97265.41;4974569;28;19976;-75
2022/02/09 13:11:50;;;;;;;;;;;;;;;12.48;54.63;97244.13;4983726;28;19968;-72
2022/02/09 13:14:27;;;;;;;;;;;;;;;12.61;57.22;97255.59;4978892;28;19960;-73
2022/02/09 13:17:08;;;;;;;;;;;;;;;12.67;55.39;97231.88;4986329;28;19963;-75
2022/02/09 13:52:08;;;;;;;;;;;;;;;13.14;53.64;97177.03;4964348;28;19957;-75
2022/02/09 14:53:48;;;;;;;;;;;;;;;13.04;49.54;97115.38;4978641;28;19976;-74
2022/02/09 14:56:27;;;;;;;;;;;;;;;13.01;48.42;97095.53;4989374;28;19989;-73
2022/02/09 14:58:59;;;;;;;;;;;;;;;12.97;47.74;97086.47;4964294;28;19968;-73
2022/02/09 15:01:36;;;;;;;;;;;;;;;12.93;47.76;97082.66;4975309;28;19965;-73
2022/02/09 15:09:33;;;;;;;;;;;;;;;12.81;46.00;97056.25;4985783;28;19979;-74
2022/02/09 15:12:18;;;;;;;;;;;;;;;12.76;46.05;97048.19;4978029;28;20440;-73
2022/02/09 15:20:11;;;;;;;;;;;;;;;12.54;46.54;97066.22;4985669;28;19953;-73
2022/02/09 15:22:34;;;;;;;;;;;;;;;12.48;46.56;97061.81;4978625;28;19963;-73
2022/02/09 15:25:00;;;;;;;;;;;;;;;12.43;47.94;97080.03;4988008;28;19977;-73
2022/02/09 15:27:25;;;;;;;;;;;;;;;12.37;48.05;97087.78;4976668;28;20003;-73
2022/02/09 15:29:53;;;;;;;;;;;;;;;12.31;47.06;97078.09;4977134;28;20409;-74
2022/02/09 15:32:27;;;;;;;;;;;;;;;12.26;48.51;97090.25;4974932;28;19959;-74
2022/02/09 15:35:06;;;;;;;;;;;;;;;12.20;48.71;97097.19;4971082;28;20421;-73
2022/02/09 16:09:28;;;;;;;;;;;;;;;11.32;59.95;97211.47;4978910;28;19993;-73
2022/02/09 16:20:34;;;;;;;;;;;;;;;11.81;55.84;97171.78;4973944;28;20345;-74
2022/02/09 16:22:52;;;;;;;;;;;;;;;11.59;55.40;97158.91;4968254;28;19967;-73
2022/02/09 16:44:46;;;;;;;;;;;;;;;10.19;56.71;97186.91;4983205;28;19974;-74
2022/02/09 16:50:01;;;;;;;;;;;;;;;9.92;57.03;97187.59;4987932;28;19963;-73
2022/02/09 16:52:36;;;;;;;;;;;;;;;9.81;57.00;97187.34;4981188;28;19967;-74
2022/02/09 17:19:45;;;;;;;;;;;;;;;8.82;57.84;97206.59;4954736;28;20428;-73
2022/02/09 17:22:11;;;;;;;;;;;;;;;8.77;57.68;97209.78;4987079;28;20008;-73
2022/02/09 17:24:37;;;;;;;;;;;;;;;8.70;56.86;97196.63;4976582;28;20427;-73
2022/02/09 17:27:06;;;;;;;;;;;;;;;8.63;55.67;97180.09;4979454;28;19969;-73
2022/02/09 17:32:50;;;;;;;;;;;;;;;8.56;56.47;97196.69;4925870;29;19960;-73
2022/02/09 17:35:22;;;;;;;;;;;;;;;8.50;57.08;97199.06;4934872;29;20329;-74
2022/02/09 17:57:03;;;;;;;;;;;;;;;7.96;57.96;97222.94;4980734;28;19982;-73
2022/02/09 17:59:31;;;;;;;;;;;;;;;7.94;58.84;97238.00;4992204;28;19975;-73
2022/02/09 18:01:57;;;;;;;;;;;;;;;7.88;58.87;97236.91;4984971;28;19960;-73
2022/02/09 18:04:24;;;;;;;;;;;;;;;7.83;58.87;97241.03;4981244;28;19965;-73
2022/02/09 18:07:01;;;;;;;;;;;;;;;7.74;59.17;97242.94;4984081;28;19963;-73
2022/02/09 18:09:33;;;;;;;;;;;;;;;7.65;59.17;97244.03;4985842;28;19955;-74
2022/02/09 18:12:12;;;;;;;;;;;;;;;7.57;59.44;97249.34;4985479;28;20409;-73
2022/02/09 18:15:08;;;;;;;;;;;;;;;7.47;59.73;97255.59;4991836;28;19967;-73
2022/02/09 18:26:27;;;;;;;;;;;;;;;7.14;60.13;97265.53;4983077;28;19971;-73
2022/02/09 18:29:20;;;;;;;;;;;;;;;7.03;59.90;97253.69;4979338;28;19968;-75
2022/02/09 18:47:48;;;;;;;;;;;;;;;6.52;60.98;97261.22;4979737;28;20313;-73
2022/02/09 19:03:52;;;;;;;;;;;;;;;6.13;61.68;97256.06;4983860;28;19961;-74
2022/02/09 19:06:22;;;;;;;;;;;;;;;6.07;61.64;97257.56;4988477;28;19949;-73
2022/02/09 19:14:10;;;;;;;;;;;;;;;6.01;61.67;97255.63;4987119;28;19958;-73
2022/02/09 19:56:51;;;;;;;;;;;;;;;5.36;63.42;97270.38;4983940;28;20073;-73
2022/02/09 19:59:19;;;;;;;;;;;;;;;5.35;63.46;97265.34;4986825;28;19972;-73
2022/02/09 20:01:46;;;;;;;;;;;;;;;5.32;63.84;97271.69;4985095;28;19963;-73
2022/02/09 20:04:13;;;;;;;;;;;;;;;5.32;63.79;97268.28;4991697;28;19959;-73
2022/02/09 20:06:39;;;;;;;;;;;;;;;5.28;63.90;97275.59;4991194;28;20424;-74
2022/02/09 20:09:05;;;;;;;;;;;;;;;5.25;63.91;97266.34;4981603;28;19954;-73
2022/02/09 20:11:30;;;;;;;;;;;;;;;5.23;64.04;97267.47;4990060;28;19960;-73
2022/02/09 20:13:56;;;;;;;;;;;;;;;5.19;64.06;97268.78;4992031;28;19963;-73
2022/02/09 20:16:23;;;;;;;;;;;;;;;5.17;64.09;97268.13;4989722;28;19979;-74
2022/02/09 20:18:53;;;;;;;;;;;;;;;5.13;64.45;97278.03;4982554;28;19966;-74
2022/02/09 20:21:21;;;;;;;;;;;;;;;5.11;64.28;97271.38;4986507;28;19960;-75
2022/02/09 20:23:47;;;;;;;;;;;;;;;5.07;64.61;97271.69;4992341;28;20310;-75
2022/02/09 20:26:14;;;;;;;;;;;;;;;5.00;64.84;97278.53;4985328;28;20342;-75
2022/02/09 20:28:46;;;;;;;;;;;;;;;4.94;65.01;97275.78;4985725;28;19949;-75
2022/02/09 20:31:16;;;;;;;;;;;;;;;4.88;65.06;97278.03;4990313;28;19952;-76
2022/02/09 20:33:48;;;;;;;;;;;;;;;4.87;65.20;97285.97;4987786;28;19962;-76
2022/02/09 20:36:17;;;;;;;;;;;;;;;4.85;65.17;97277.53;4988986;28;19979;-76
2022/02/09 20:38:45;;;;;;;;;;;;;;;4.81;64.97;97277.06;4988685;28;19956;-75
2022/02/09 20:41:13;;;;;;;;;;;;;;;4.76;65.17;97281.09;4984799;28;19956;-75
2022/02/09 20:43:45;;;;;;;;;;;;;;;4.70;64.92;97266.16;4985628;28;19953;-76
2022/02/09 20:46:12;;;;;;;;;;;;;;;4.62;65.30;97275.56;4986878;28;19958;-75
2022/02/09 20:48:38;;;;;;;;;;;;;;;4.54;65.27;97270.34;4986823;28;19964;-75
2022/02/09 20:51:04;;;;;;;;;;;;;;;4.48;65.29;97278.78;4986620;28;19958;-75
2022/02/09 20:53:30;;;;;;;;;;;;;;;4.42;65.56;97279.41;4984160;28;19977;-75
2022/02/09 20:55:57;;;;;;;;;;;;;;;4.35;65.87;97279.22;4990694;28;19987;-75
2022/02/09 20:58:23;;;;;;;;;;;;;;;4.32;66.23;97289.91;4993615;28;19959;-76
2022/02/09 21:01:00;;;;;;;;;;;;;;;4.28;65.91;97291.19;4983846;28;19948;-76
2022/02/09 21:06:16;;;;;;;;;;;;;;;4.16;66.18;97293.28;4986810;28;19964;-75
2022/02/09 21:11:25;;;;;;;;;;;;;;;4.09;66.67;97289.66;4986278;28;19962;-76
2022/02/09 21:16:42;;;;;;;;;;;;;;;4.02;66.78;97299.06;4983920;28;20433;-75
2022/02/09 21:27:14;;;;;;;;;;;;;;;3.84;67.00;97297.34;4983567;28;19956;-76
2022/02/09 21:44:25;;;;;;;;;;;;;;;3.82;67.61;97282.88;4985540;28;19959;-75
2022/02/09 21:54:43;;;;;;;;;;;;;;;3.56;67.91;97275.94;4984742;28;19962;-75
2022/02/09 21:57:21;;;;;;;;;;;;;;;3.51;68.11;97279.94;4979967;28;19980;-75
2022/02/09 22:16:31;;;;;;;;;;;;;;;3.27;68.99;97278.03;4981752;28;20318;-75
2022/02/09 22:22:02;;;;;;;;;;;;;;;3.20;69.18;97275.22;4991899;28;19977;-75
2022/02/09 22:27:21;;;;;;;;;;;;;;;3.15;69.63;97273.09;4985954;28;20314;-74
2022/02/09 22:33:19;;;;;;;;;;;;;;;3.10;69.12;97266.72;4986297;28;19963;-75
2022/02/09 22:56:35;;;;;;;;;;;;;;;2.92;69.89;97249.44;4987080;28;19978;-74
2022/02/09 22:59:04;;;;;;;;;;;;;;;2.92;69.64;97254.59;4980747;28;19959;-75
2022/02/09 23:01:45;;;;;;;;;;;;;;;2.92;69.89;97253.78;4984172;28;19957;-75
2022/02/09 23:25:37;;;;;;;;;;;;;;;2.64;69.82;97240.91;4979927;28;20620;-75
